Time;durP1;ratioP1;P1;durP2;ratioP2;P2;SDS_P1;SDS_P2;PMS_P1;PMS_P2;Temp;Humidity;BMP_temperature;BMP_pressure;BME280_temperature;BME280_humidity;BME280_pressure;Samples;Min_cycle;Max_cycle;Signal;HPM_P1;HPM_P2
2022/11/20 00:01:09;;;;;;;23.23;15.27;;;-1.80;99.90;;;;;;5066262;28;20050;-85
2022/11/20 00:03:35;;;;;;;26.65;16.70;;;-1.70;99.90;;;;;;5077161;28;20048;-84
2022/11/20 00:06:02;;;;;;;24.48;16.85;;;-1.70;99.90;;;;;;5074774;28;20101;-84
2022/11/20 00:08:28;;;;;;;25.45;16.88;;;-1.70;99.90;;;;;;5080626;28;20101;-85
2022/11/20 00:10:53;;;;;;;29.05;17.80;;;-1.70;99.90;;;;;;5095842;28;20055;-85
2022/11/20 00:13:19;;;;;;;25.00;16.77;;;-1.70;99.90;;;;;;5113739;28;20040;-83
2022/11/20 00:15:45;;;;;;;24.27;16.10;;;-1.70;99.90;;;;;;5096630;28;20383;-84
2022/11/20 00:18:11;;;;;;;25.05;16.63;;;-1.60;99.90;;;;;;5096640;28;20042;-84
2022/11/20 00:20:36;;;;;;;23.60;15.25;;;-1.60;99.90;;;;;;5086702;28;20044;-83
2022/11/20 00:23:02;;;;;;;24.35;16.17;;;-1.60;99.90;;;;;;5059126;28;20624;-84
2022/11/20 00:25:28;;;;;;;22.80;15.80;;;-0.70;99.90;;;;;;5112942;28;20048;-85
2022/11/20 00:27:53;;;;;;;22.33;15.10;;;-1.50;99.90;;;;;;5097039;28;20047;-85
2022/11/20 00:30:19;;;;;;;22.00;14.82;;;-0.80;99.90;;;;;;5114805;28;20124;-83
2022/11/20 00:32:44;;;;;;;23.77;15.98;;;-0.80;99.90;;;;;;5091725;28;20463;-85
2022/11/20 00:35:10;;;;;;;23.65;15.55;;;-1.50;99.90;;;;;;5069619;28;20082;-84
2022/11/20 00:37:36;;;;;;;24.17;15.77;;;-1.40;99.90;;;;;;5091354;28;20044;-83
2022/11/20 00:40:01;;;;;;;21.60;14.55;;;-1.40;99.90;;;;;;5070874;28;20044;-84
2022/11/20 00:42:27;;;;;;;20.25;13.98;;;-1.40;99.90;;;;;;5079103;28;20390;-83
2022/11/20 00:44:53;;;;;;;23.45;14.75;;;-1.40;99.90;;;;;;5079102;28;20074;-84
2022/11/20 00:47:18;;;;;;;25.55;16.42;;;-1.30;99.90;;;;;;5096155;28;20100;-83
2022/11/20 00:49:44;;;;;;;22.85;15.88;;;-1.30;99.90;;;;;;5083068;28;20453;-83
2022/11/20 00:52:10;;;;;;;21.65;15.23;;;-1.30;99.90;;;;;;5096185;28;20100;-84
2022/11/20 00:54:35;;;;;;;24.17;16.70;;;-1.30;99.90;;;;;;5062617;28;20054;-84
2022/11/20 00:57:01;;;;;;;24.15;15.77;;;-1.30;99.90;;;;;;5078614;28;20047;-84
2022/11/20 00:59:27;;;;;;;27.67;17.65;;;-1.30;99.90;;;;;;5078537;28;20459;-86
2022/11/20 01:01:52;;;;;;;26.60;17.42;;;-1.20;99.90;;;;;;5079204;28;20119;-84
2022/11/20 01:04:18;;;;;;;27.10;17.25;;;-1.20;99.90;;;;;;5095850;28;20134;-82
2022/11/20 01:06:44;;;;;;;34.70;20.85;;;-1.20;99.90;;;;;;5079206;28;20051;-83
2022/11/20 01:09:12;;;;;;;27.48;16.70;;;-1.20;99.90;;;;;;5079354;28;20058;-83
2022/11/20 01:11:41;;;;;;;23.27;14.98;;;-1.10;99.90;;;;;;5081218;28;20399;-83
2022/11/20 01:14:13;;;;;;;24.73;15.65;;;-1.10;99.90;;;;;;5095982;28;20052;-84
2022/11/20 01:16:45;;;;;;;24.85;16.35;;;-1.10;99.90;;;;;;5090096;28;20051;-83
2022/11/20 01:19:15;;;;;;;23.42;15.10;;;-0.50;99.90;;;;;;5071175;28;20047;-84
2022/11/20 01:21:42;;;;;;;22.80;15.18;;;-0.70;99.90;;;;;;5092055;28;20052;-83
2022/11/20 01:24:12;;;;;;;24.10;16.02;;;-1.10;99.90;;;;;;5075473;28;20400;-83
2022/11/20 01:26:40;;;;;;;20.40;14.85;;;-1.10;99.90;;;;;;5078598;28;20051;-84
2022/11/20 01:29:07;;;;;;;24.17;16.15;;;-1.10;99.90;;;;;;5095683;28;20047;-85
2022/11/20 01:31:35;;;;;;;23.00;14.93;;;-1.00;99.90;;;;;;5078319;28;20058;-85
2022/11/20 01:34:16;;;;;;;22.63;15.20;;;-1.00;99.90;;;;;;5095821;28;20061;-83
2022/11/20 01:36:42;;;;;;;22.30;15.63;;;-1.00;99.90;;;;;;5095533;28;20075;-84
2022/11/20 01:39:12;;;;;;;23.83;16.52;;;-1.00;99.90;;;;;;5095122;28;20113;-84
2022/11/20 01:44:58;;;;;;;22.20;16.13;;;-1.00;99.90;;;;;;5067292;28;20177;-83
2022/11/20 01:47:35;;;;;;;22.85;15.27;;;-1.00;99.90;;;;;;5095209;28;20457;-83
2022/11/20 01:50:18;;;;;;;25.48;16.42;;;-1.00;99.90;;;;;;5095530;28;20064;-83
2022/11/20 01:52:55;;;;;;;24.70;16.30;;;-1.00;99.90;;;;;;5078077;28;20083;-83
2022/11/20 01:55:25;;;;;;;24.05;16.20;;;-1.00;99.90;;;;;;5090675;28;20044;-84
2022/11/20 01:57:51;;;;;;;22.27;14.70;;;-0.90;99.90;;;;;;5095264;28;20069;-83
2022/11/20 02:00:19;;;;;;;22.77;15.55;;;-0.90;99.90;;;;;;5088647;28;20058;-84
2022/11/20 02:02:53;;;;;;;21.83;15.50;;;-0.90;99.90;;;;;;5078465;28;20058;-84
2022/11/20 02:05:22;;;;;;;24.40;15.88;;;-0.90;99.90;;;;;;5080116;28;20047;-85
2022/11/20 02:07:48;;;;;;;22.50;15.38;;;-0.90;99.90;;;;;;5069909;28;20083;-84
2022/11/20 02:10:14;;;;;;;23.45;15.63;;;-0.80;99.90;;;;;;5064300;28;20052;-83
2022/11/20 02:15:24;;;;;;;22.77;15.23;;;-0.90;99.90;;;;;;5080807;28;20087;-83
2022/11/20 02:17:50;;;;;;;22.27;15.35;;;-0.80;99.90;;;;;;5077798;28;20086;-84
2022/11/20 02:20:16;;;;;;;22.13;15.32;;;-0.80;99.90;;;;;;5078351;28;20502;-85
2022/11/20 02:22:50;;;;;;;23.88;16.48;;;-0.80;99.90;;;;;;5077853;28;20106;-83
2022/11/20 02:25:18;;;;;;;23.95;15.68;;;-0.80;99.90;;;;;;5082041;28;20060;-84
2022/11/20 02:27:44;;;;;;;24.58;15.98;;;-0.80;99.90;;;;;;5076307;28;20042;-83
2022/11/20 02:30:10;;;;;;;22.85;15.68;;;-0.70;99.90;;;;;;5061416;28;20126;-84
2022/11/20 02:32:37;;;;;;;22.85;15.43;;;-0.80;99.90;;;;;;5061103;28;20043;-83
2022/11/20 02:35:30;;;;;;;24.15;16.02;;;-0.70;99.90;;;;;;5079675;28;20096;-83
2022/11/20 02:37:59;;;;;;;24.58;16.77;;;-0.70;99.90;;;;;;5094842;28;20043;-84
2022/11/20 02:40:25;;;;;;;21.92;15.05;;;-0.70;99.90;;;;;;5098639;28;20060;-83
2022/11/20 02:42:55;;;;;;;23.88;15.52;;;-0.70;99.90;;;;;;5098872;28;20051;-83
2022/11/20 02:45:22;;;;;;;23.27;15.20;;;-0.70;99.90;;;;;;5098832;28;20114;-84
2022/11/20 02:47:48;;;;;;;22.15;15.30;;;-0.20;99.90;;;;;;5083711;28;20043;-84
2022/11/20 02:50:13;;;;;;;22.10;15.25;;;-0.70;99.90;;;;;;5091563;28;20609;-84
2022/11/20 02:52:39;;;;;;;21.83;15.48;;;-0.70;99.90;;;;;;5091604;28;20518;-83
2022/11/20 02:55:05;;;;;;;23.10;15.43;;;-0.70;99.90;;;;;;5098069;28;20046;-84
2022/11/20 02:57:31;;;;;;;23.25;15.55;;;-0.60;99.90;;;;;;5064454;28;20055;-83
2022/11/20 02:59:57;;;;;;;21.17;14.48;;;-0.60;99.90;;;;;;5098107;28;20036;-84
2022/11/20 03:02:23;;;;;;;21.40;15.00;;;-0.60;99.90;;;;;;5081521;28;20040;-84
2022/11/20 03:04:48;;;;;;;21.60;14.65;;;-0.60;99.90;;;;;;5081485;28;20048;-84
2022/11/20 03:07:14;;;;;;;22.08;14.57;;;-0.60;99.90;;;;;;5058476;28;20475;-83
2022/11/20 03:09:40;;;;;;;22.90;14.93;;;-0.40;99.90;;;;;;5073586;28;20406;-84
2022/11/20 03:12:05;;;;;;;21.35;15.00;;;-0.60;99.90;;;;;;5080775;28;20043;-86
2022/11/20 03:14:31;;;;;;;21.92;14.93;;;-0.60;99.90;;;;;;5098044;28;20051;-83
2022/11/20 03:16:57;;;;;;;23.10;16.00;;;-0.60;99.90;;;;;;5098099;28;20445;-83
2022/11/20 03:19:23;;;;;;;22.75;15.90;;;-0.60;99.90;;;;;;5077778;28;20054;-83
2022/11/20 03:21:49;;;;;;;23.40;15.80;;;-0.50;99.90;;;;;;5064256;28;20106;-85
2022/11/20 03:24:14;;;;;;;21.48;14.93;;;-0.40;99.90;;;;;;5077785;28;20058;-83
2022/11/20 03:26:40;;;;;;;20.65;14.32;;;-0.50;99.90;;;;;;5064172;28;20449;-83
2022/11/20 03:29:06;;;;;;;21.40;14.95;;;-0.50;99.90;;;;;;5094766;28;20055;-84
2022/11/20 03:31:37;;;;;;;22.50;14.95;;;0.20;99.90;;;;;;5078134;28;20048;-83
2022/11/20 03:34:04;;;;;;;20.75;13.77;;;-0.50;99.90;;;;;;5071950;28;20040;-83
2022/11/20 03:36:30;;;;;;;20.80;13.82;;;-0.40;99.90;;;;;;5090002;28;20051;-83
2022/11/20 03:38:56;;;;;;;21.08;13.20;;;-0.20;99.90;;;;;;5087933;28;20040;-83
2022/11/20 03:41:27;;;;;;;20.95;13.60;;;-0.50;99.90;;;;;;5076481;28;20078;-84
2022/11/20 03:43:59;;;;;;;20.27;14.25;;;-0.40;99.90;;;;;;5080386;28;20054;-83
2022/11/20 03:46:25;;;;;;;24.10;14.60;;;-0.40;99.90;;;;;;5089832;28;20180;-83
2022/11/20 03:48:51;;;;;;;19.85;13.95;;;-0.40;99.90;;;;;;5077179;28;20033;-84
2022/11/20 03:51:19;;;;;;;22.25;14.70;;;-0.40;99.90;;;;;;5097367;28;20054;-83
2022/11/20 03:53:46;;;;;;;21.98;15.07;;;-0.40;99.90;;;;;;5097304;28;20535;-84
2022/11/20 03:56:13;;;;;;;23.08;14.68;;;0.60;99.90;;;;;;5076588;28;20488;-84
2022/11/20 03:58:40;;;;;;;21.30;14.35;;;0.20;99.90;;;;;;5067308;28;20136;-84
2022/11/20 04:01:11;;;;;;;18.80;13.57;;;-0.40;99.90;;;;;;5079756;28;20050;-85
2022/11/20 04:03:38;;;;;;;20.33;14.15;;;-0.40;99.90;;;;;;5097095;28;20104;-85
2022/11/20 04:06:09;;;;;;;21.60;14.25;;;-0.30;99.90;;;;;;5097186;28;20480;-84
2022/11/20 04:08:35;;;;;;;20.80;14.25;;;-0.30;99.90;;;;;;5076727;28;20048;-84
2022/11/20 04:11:16;;;;;;;20.15;13.90;;;-0.30;99.90;;;;;;5077555;28;20058;-84
2022/11/20 04:13:42;;;;;;;22.30;14.40;;;-0.20;99.90;;;;;;5077006;28;20079;-84
2022/11/20 04:16:09;;;;;;;20.63;14.63;;;0.00;99.90;;;;;;5096637;28;20391;-84
2022/11/20 04:18:35;;;;;;;19.83;13.38;;;-0.30;99.90;;;;;;5089551;28;20537;-84
2022/11/20 04:21:02;;;;;;;20.98;13.80;;;0.30;99.90;;;;;;5089991;28;20040;-83
2022/11/20 04:23:28;;;;;;;22.13;14.57;;;-0.30;99.90;;;;;;5073608;28;20127;-84
2022/11/20 04:25:54;;;;;;;19.90;14.65;;;-0.30;99.90;;;;;;5066697;28;20056;-84
2022/11/20 04:28:20;;;;;;;19.77;13.90;;;-0.30;99.90;;;;;;5096830;28;20073;-84
2022/11/20 04:30:46;;;;;;;20.00;13.85;;;-0.30;99.90;;;;;;5074634;28;20494;-84
2022/11/20 04:33:11;;;;;;;20.23;14.23;;;-0.30;99.90;;;;;;5063266;28;20075;-84
2022/11/20 04:35:37;;;;;;;20.98;14.13;;;-0.30;99.90;;;;;;5105815;28;20052;-84
2022/11/20 04:38:03;;;;;;;20.45;14.38;;;-0.30;99.90;;;;;;5094913;28;20118;-84
2022/11/20 04:40:30;;;;;;;19.85;13.95;;;-0.30;99.90;;;;;;5095542;28;20836;-84
2022/11/20 04:42:56;;;;;;;22.27;14.43;;;0.40;99.90;;;;;;5079650;28;20051;-84
2022/11/20 04:45:24;;;;;;;20.23;14.20;;;-0.30;99.90;;;;;;5096287;28;20364;-84
2022/11/20 04:47:50;;;;;;;20.23;13.40;;;-0.30;99.90;;;;;;5079409;28;20085;-84
2022/11/20 04:50:16;;;;;;;20.15;13.93;;;-0.30;99.90;;;;;;5079358;28;20098;-83
2022/11/20 04:52:41;;;;;;;20.17;14.48;;;0.10;99.90;;;;;;5057872;28;20043;-83
2022/11/20 04:55:08;;;;;;;21.08;14.07;;;-0.20;99.90;;;;;;5085277;28;20051;-86
2022/11/20 04:57:33;;;;;;;22.10;14.27;;;-0.30;99.90;;;;;;5078566;28;20043;-83
2022/11/20 04:59:59;;;;;;;20.75;14.80;;;-0.20;99.90;;;;;;5078561;28;20040;-83
2022/11/20 05:02:25;;;;;;;20.83;14.40;;;-0.20;99.90;;;;;;5112471;28;20046;-84
2022/11/20 05:04:50;;;;;;;19.77;14.02;;;-0.30;99.90;;;;;;5095973;28;20046;-83
2022/11/20 05:07:16;;;;;;;20.38;13.32;;;-0.20;99.90;;;;;;5072642;28;20044;-83
2022/11/20 05:09:42;;;;;;;22.13;15.02;;;-0.20;99.90;;;;;;5088136;28;20054;-84
2022/11/20 05:12:08;;;;;;;20.42;14.13;;;-0.20;99.90;;;;;;5068195;28;20036;-85
2022/11/20 05:14:34;;;;;;;19.90;14.10;;;-0.20;99.90;;;;;;5090801;28;20060;-83
2022/11/20 05:17:00;;;;;;;20.67;14.35;;;0.60;99.90;;;;;;5079007;28;20043;-84
2022/11/20 05:19:26;;;;;;;20.30;14.02;;;-0.10;99.90;;;;;;5078637;28;20043;-83
2022/11/20 05:21:52;;;;;;;18.75;13.30;;;-0.20;99.90;;;;;;5078796;28;20550;-84
2022/11/20 05:24:17;;;;;;;19.05;13.32;;;0.70;99.90;;;;;;5096117;28;20079;-83
2022/11/20 05:26:43;;;;;;;20.63;13.45;;;-0.20;99.90;;;;;;5074247;28;20048;-83
2022/11/20 05:29:12;;;;;;;19.92;13.55;;;-0.20;99.90;;;;;;5095897;28;20047;-84
2022/11/20 05:31:39;;;;;;;20.15;13.52;;;-0.20;99.90;;;;;;5078472;28;20039;-84
2022/11/20 05:34:06;;;;;;;19.98;14.45;;;-0.20;99.90;;;;;;5062577;28;20062;-84
2022/11/20 05:36:32;;;;;;;18.25;13.82;;;-0.20;99.90;;;;;;5095124;28;20440;-84
2022/11/20 05:38:58;;;;;;;20.08;13.80;;;-0.20;99.90;;;;;;5095416;28;20079;-84
2022/11/20 05:41:24;;;;;;;19.70;13.60;;;0.70;99.90;;;;;;5094411;28;20506;-84
2022/11/20 05:43:50;;;;;;;19.77;13.23;;;-0.10;99.90;;;;;;5095243;28;20044;-84
2022/11/20 05:46:18;;;;;;;21.35;15.25;;;-0.20;99.90;;;;;;5111640;28;20036;-84
2022/11/20 05:48:45;;;;;;;20.38;14.13;;;-0.20;99.90;;;;;;5095644;28;20051;-82
2022/11/20 05:51:14;;;;;;;20.48;13.50;;;-0.20;99.90;;;;;;5078503;28;20049;-87
2022/11/20 05:53:40;;;;;;;19.15;13.85;;;0.50;99.90;;;;;;5052526;28;20048;-84
2022/11/20 05:56:12;;;;;;;19.65;13.95;;;-0.20;99.90;;;;;;5089958;28;20044;-83
2022/11/20 05:58:38;;;;;;;;;;;0.20;99.90;;;;;;5078363;28;20127;-83
2022/11/20 06:01:17;;;;;;;18.73;13.18;;;-0.20;99.90;;;;;;5090819;28;19923;-83
2022/11/20 06:03:45;;;;;;;20.77;13.55;;;-0.10;99.90;;;;;;5095303;28;20104;-84
2022/11/20 06:06:12;;;;;;;20.23;13.27;;;0.20;99.90;;;;;;5078316;28;20051;-84
2022/11/20 06:08:37;;;;;;;20.45;14.82;;;0.20;99.90;;;;;;5094961;28;20375;-83
2022/11/20 06:11:08;;;;;;;20.45;13.88;;;-0.10;99.90;;;;;;5095490;28;20055;-85
2022/11/20 06:13:35;;;;;;;20.10;14.88;;;-0.10;99.90;;;;;;5099524;28;20394;-84
2022/11/20 06:16:01;;;;;;;19.65;13.25;;;-0.10;99.90;;;;;;5098426;28;20039;-84
2022/11/20 06:18:28;;;;;;;20.42;14.10;;;-0.10;99.90;;;;;;5099466;28;20040;-83
2022/11/20 06:21:06;;;;;;;21.65;14.40;;;-0.10;99.90;;;;;;5095814;28;20048;-83
2022/11/20 06:23:33;;;;;;;19.33;13.48;;;-0.10;99.90;;;;;;5078511;28;20058;-83
2022/11/20 06:26:04;;;;;;;19.42;13.35;;;0.10;99.90;;;;;;5090496;28;20486;-83
2022/11/20 06:28:30;;;;;;;19.13;12.93;;;-0.20;99.90;;;;;;5097571;28;20046;-84
2022/11/20 06:30:55;;;;;;;20.30;12.85;;;-0.10;99.90;;;;;;5078561;28;20399;-83
2022/11/20 06:33:21;;;;;;;18.55;12.68;;;-0.10;99.90;;;;;;5098410;28;20035;-83
2022/11/20 06:35:47;;;;;;;17.65;12.90;;;-0.10;99.90;;;;;;5095104;28;20078;-83
2022/11/20 06:38:12;;;;;;;18.77;11.95;;;-0.10;99.90;;;;;;5085478;28;20599;-86
2022/11/20 06:40:42;;;;;;;17.55;12.05;;;-0.10;99.90;;;;;;5087250;28;20131;-83
2022/11/20 06:43:09;;;;;;;17.23;12.10;;;-0.10;99.90;;;;;;5079770;28;20055;-83
2022/11/20 06:45:35;;;;;;;18.95;12.88;;;0.20;99.90;;;;;;5079871;28;20047;-82
2022/11/20 06:48:01;;;;;;;17.40;12.15;;;0.60;99.90;;;;;;5075625;28;20455;-82
2022/11/20 06:50:26;;;;;;;19.08;13.30;;;-0.10;99.90;;;;;;5094727;28;20035;-83
2022/11/20 06:52:52;;;;;;;18.60;12.43;;;-0.10;99.90;;;;;;5097483;28;20472;-82
2022/11/20 06:55:18;;;;;;;17.77;12.77;;;-0.10;99.90;;;;;;5069064;28;20443;-83
2022/11/20 06:57:43;;;;;;;18.45;12.52;;;-0.10;99.90;;;;;;5068266;28;20064;-83
2022/11/20 07:00:10;;;;;;;18.02;12.68;;;-0.10;99.90;;;;;;5032899;28;20399;-83
2022/11/20 07:02:35;;;;;;;18.92;12.25;;;-0.10;99.90;;;;;;5074181;28;20941;-82
2022/11/20 07:05:01;;;;;;;16.48;12.30;;;0.20;99.90;;;;;;5075773;28;20046;-82
2022/11/20 07:07:27;;;;;;;19.50;13.30;;;-0.10;99.90;;;;;;5079075;28;20054;-82
2022/11/20 07:09:52;;;;;;;18.77;12.52;;;-0.10;99.90;;;;;;5095801;28;20403;-83
2022/11/20 07:12:18;;;;;;;20.05;14.45;;;0.00;99.90;;;;;;5079531;28;20083;-85
2022/11/20 07:14:44;;;;;;;20.15;13.48;;;0.30;99.90;;;;;;5097578;28;20111;-82
2022/11/20 07:17:09;;;;;;;19.45;13.82;;;-0.10;99.90;;;;;;5078016;28;20035;-82
2022/11/20 07:19:35;;;;;;;22.23;15.32;;;-0.10;99.90;;;;;;5097404;28;20176;-82
2022/11/20 07:22:01;;;;;;;19.65;13.27;;;0.30;99.90;;;;;;5069291;28;20052;-82
2022/11/20 07:24:26;;;;;;;20.70;13.25;;;-0.10;99.90;;;;;;5053704;28;20052;-83
2022/11/20 07:26:52;;;;;;;18.70;13.27;;;0.50;99.90;;;;;;5073507;28;20048;-82
2022/11/20 07:29:18;;;;;;;19.65;13.10;;;-0.10;99.90;;;;;;5077557;28;20048;-84
2022/11/20 07:31:43;;;;;;;19.50;13.18;;;0.40;99.90;;;;;;5073669;28;20055;-83
2022/11/20 07:34:09;;;;;;;19.20;13.50;;;-0.10;99.90;;;;;;5071916;28;20123;-82
2022/11/20 07:36:35;;;;;;;18.63;13.60;;;0.30;99.90;;;;;;5070357;28;20044;-82
2022/11/20 07:39:01;;;;;;;18.35;12.68;;;0.00;99.90;;;;;;5057016;28;20395;-82
2022/11/20 07:41:27;;;;;;;19.95;13.15;;;0.50;99.90;;;;;;5073194;28;20044;-82
2022/11/20 07:43:53;;;;;;;18.75;13.27;;;0.00;99.90;;;;;;5064118;28;20056;-83
2022/11/20 07:46:19;;;;;;;18.65;13.65;;;0.00;99.90;;;;;;5030459;28;20048;-82
2022/11/20 07:48:44;;;;;;;20.08;14.23;;;0.00;99.90;;;;;;5033550;28;20059;-81
2022/11/20 07:51:10;;;;;;;19.83;14.00;;;0.10;99.90;;;;;;5052222;28;20049;-82
2022/11/20 07:53:36;;;;;;;21.05;14.02;;;0.10;99.90;;;;;;5063851;28;20131;-81
2022/11/20 07:56:02;;;;;;;21.15;14.15;;;0.10;99.90;;;;;;5073102;28;20076;-83
2022/11/20 07:58:32;;;;;;;20.95;14.43;;;0.10;99.90;;;;;;5068316;28;20071;-83
2022/11/20 08:01:05;;;;;;;20.73;13.95;;;0.10;99.90;;;;;;5068207;28;20474;-84
2022/11/20 08:03:31;;;;;;;19.60;13.00;;;0.10;99.90;;;;;;5041968;28;20139;-82
2022/11/20 08:06:01;;;;;;;19.35;13.70;;;0.10;99.90;;;;;;4985157;28;20488;-83
2022/11/20 08:08:27;;;;;;;21.20;13.85;;;0.10;99.90;;;;;;5081406;28;20505;-82
2022/11/20 08:14:11;;;;;;;19.33;13.80;;;0.20;99.90;;;;;;5063601;28;20040;-82
2022/11/20 08:16:23;;;;;;;20.50;13.93;;;0.10;99.90;;;;;;5083238;28;20097;-82
2022/11/20 08:18:49;;;;;;;19.52;13.57;;;0.10;99.90;;;;;;5079272;28;20040;-82
2022/11/20 08:21:15;;;;;;;19.52;13.63;;;0.20;99.90;;;;;;5078064;28;20070;-81
2022/11/20 08:23:40;;;;;;;19.30;13.45;;;0.20;99.90;;;;;;5058824;28;20055;-83
2022/11/20 08:26:06;;;;;;;19.73;14.10;;;0.20;99.90;;;;;;5086689;28;20123;-82
2022/11/20 08:28:32;;;;;;;19.08;13.45;;;0.20;99.90;;;;;;5066108;28;20463;-84
2022/11/20 08:31:00;;;;;;;19.00;13.52;;;0.20;99.90;;;;;;5101268;28;20054;-83
2022/11/20 08:33:25;;;;;;;19.33;13.60;;;0.30;99.90;;;;;;5072364;28;20039;-82
2022/11/20 08:35:51;;;;;;;19.13;13.75;;;0.30;99.90;;;;;;5093520;28;20450;-81
2022/11/20 08:38:17;;;;;;;18.42;13.40;;;0.30;99.90;;;;;;5098299;28;20044;-82
2022/11/20 08:41:23;;;;;;;18.90;13.15;;;0.40;99.90;;;;;;5070338;28;20392;-83
2022/11/20 08:43:28;;;;;;;18.75;12.45;;;0.40;99.90;;;;;;5084366;28;20055;-81
2022/11/20 08:45:56;;;;;;;18.45;12.90;;;0.60;99.90;;;;;;5051726;28;20040;-81
2022/11/20 08:48:22;;;;;;;18.92;13.43;;;0.40;99.90;;;;;;5068686;28;20075;-81
2022/11/20 08:50:48;;;;;;;19.77;13.98;;;0.40;99.90;;;;;;5075489;28;20468;-81
2022/11/20 08:53:14;;;;;;;19.23;12.70;;;0.50;99.90;;;;;;5097761;28;20040;-81
2022/11/20 08:55:40;;;;;;;18.45;13.13;;;0.40;99.90;;;;;;5059030;28;20047;-81
2022/11/20 08:58:06;;;;;;;20.30;14.35;;;1.10;99.90;;;;;;5060053;28;20082;-83
2022/11/20 09:00:33;;;;;;;21.08;13.88;;;1.40;99.90;;;;;;5089215;28;20044;-83
2022/11/20 09:03:00;;;;;;;20.00;13.48;;;0.50;99.90;;;;;;5086611;28;20043;-82
2022/11/20 09:05:26;;;;;;;19.42;13.82;;;1.00;99.90;;;;;;5088811;28;20072;-83
2022/11/20 09:07:56;;;;;;;18.60;13.27;;;0.60;99.90;;;;;;5084581;28;20477;-81
2022/11/20 09:10:22;;;;;;;18.73;13.07;;;0.60;99.90;;;;;;5071608;28;20280;-82
2022/11/20 09:12:51;;;;;;;16.98;12.50;;;0.60;99.90;;;;;;5094189;28;20047;-85
2022/11/20 09:15:18;;;;;;;17.67;12.80;;;0.70;99.90;;;;;;5074494;28;20530;-82
2022/11/20 09:17:54;;;;;;;17.33;12.38;;;0.70;99.90;;;;;;5064681;28;20040;-82
2022/11/20 09:20:20;;;;;;;18.50;12.18;;;0.70;99.90;;;;;;5068742;28;20570;-81
2022/11/20 09:22:47;;;;;;;18.73;12.48;;;0.70;99.90;;;;;;5086678;28;20114;-82
2022/11/20 09:25:13;;;;;;;19.05;13.25;;;0.70;99.90;;;;;;5088421;28;20528;-80
2022/11/20 09:27:41;;;;;;;17.63;12.25;;;0.70;99.90;;;;;;5090540;28;20139;-83
2022/11/20 09:30:07;;;;;;;16.23;12.05;;;1.40;99.90;;;;;;5089335;28;20101;-82
2022/11/20 09:32:33;;;;;;;18.33;12.73;;;0.80;99.90;;;;;;5104649;28;20126;-81
2022/11/20 09:34:59;;;;;;;17.05;12.43;;;0.80;99.90;;;;;;5074093;28;20143;-80
2022/11/20 09:37:24;;;;;;;17.30;12.00;;;0.90;99.90;;;;;;5081201;28;20122;-81
2022/11/20 09:39:50;;;;;;;17.77;12.38;;;0.90;99.90;;;;;;5108152;28;20052;-81
2022/11/20 09:43:10;;;;;;;16.60;11.55;;;1.00;99.90;;;;;;5105656;28;20039;-81
2022/11/20 09:46:16;;;;;;;16.13;12.05;;;1.00;99.90;;;;;;5026223;28;20045;-80
2022/11/20 09:48:54;;;;;;;17.55;12.05;;;1.00;99.90;;;;;;5090576;28;20043;-85
2022/11/20 09:51:35;;;;;;;16.50;12.05;;;1.30;99.90;;;;;;5094948;28;20047;-81
2022/11/20 09:54:16;;;;;;;17.33;11.95;;;1.10;99.90;;;;;;5108355;28;20483;-80
2022/11/20 09:56:46;;;;;;;16.80;12.43;;;1.10;99.90;;;;;;5095664;28;20054;-81
2022/11/20 09:59:35;;;;;;;16.73;11.85;;;1.90;99.90;;;;;;5082112;28;20046;-80
2022/11/20 10:02:11;;;;;;;17.05;12.57;;;1.20;99.90;;;;;;5097728;28;20105;-83
2022/11/20 10:04:43;;;;;;;17.23;12.45;;;1.20;99.90;;;;;;5074051;28;20042;-82
2022/11/20 10:07:16;;;;;;;18.83;12.73;;;1.90;99.90;;;;;;5089767;28;20526;-81
2022/11/20 10:09:54;;;;;;;20.60;13.82;;;1.50;99.90;;;;;;5078238;28;20079;-80
2022/11/20 10:12:38;;;;;;;18.80;13.02;;;1.40;99.90;;;;;;5091084;28;20036;-81
2022/11/20 10:15:19;;;;;;;17.52;12.38;;;1.50;99.90;;;;;;5091115;28;20526;-79
2022/11/20 10:17:53;;;;;;;16.92;12.05;;;1.50;99.90;;;;;;5105669;28;20368;-82
2022/11/20 10:20:34;;;;;;;17.25;11.85;;;1.50;99.90;;;;;;5109234;28;20047;-80
2022/11/20 10:22:59;;;;;;;16.85;11.63;;;1.60;99.90;;;;;;5091989;28;20142;-80
2022/11/20 10:25:42;;;;;;;18.58;11.80;;;1.70;99.90;;;;;;5098343;28;20684;-80
2022/11/20 10:28:24;;;;;;;17.20;12.13;;;1.80;99.90;;;;;;5080082;28;20462;-79
2022/11/20 10:31:07;;;;;;;18.80;11.95;;;1.70;99.90;;;;;;5095275;28;20083;-83
2022/11/20 10:33:37;;;;;;;17.25;11.38;;;1.90;99.90;;;;;;5077919;28;20047;-79
2022/11/20 10:36:10;;;;;;;17.55;11.93;;;1.90;99.90;;;;;;5080392;28;20047;-79
2022/11/20 10:38:59;;;;;;;16.58;11.73;;;2.00;99.90;;;;;;5081017;28;20040;-78
2022/11/20 10:41:30;;;;;;;15.63;11.00;;;2.10;99.90;;;;;;5101678;28;20123;-80
2022/11/20 10:45:00;;;;;;;14.80;10.73;;;2.20;99.90;;;;;;5105703;28;20056;-80
2022/11/20 10:47:01;;;;;;;15.18;11.45;;;2.20;99.90;;;;;;5106089;28;20112;-78
2022/11/20 10:49:27;;;;;;;14.88;10.25;;;2.20;99.90;;;;;;5090450;28;20048;-77
2022/11/20 10:52:12;;;;;;;15.48;10.40;;;2.30;99.90;;;;;;5102117;28;20567;-77
2022/11/20 10:55:22;;;;;;;13.65;9.55;;;2.40;99.90;;;;;;5102076;28;20060;-78
2022/11/20 10:57:55;;;;;;;13.93;10.07;;;2.50;99.90;;;;;;5111406;28;20052;-81
2022/11/20 11:00:21;;;;;;;14.65;10.30;;;2.50;99.90;;;;;;5100120;28;20069;-77
2022/11/20 11:02:48;;;;;;;13.82;9.88;;;2.60;99.90;;;;;;5105521;28;20127;-77
2022/11/20 11:05:27;;;;;;;14.20;10.07;;;2.60;99.90;;;;;;5085691;28;20064;-78
2022/11/20 11:07:57;;;;;;;12.98;9.75;;;2.70;99.90;;;;;;5093314;28;20165;-77
2022/11/20 11:10:48;;;;;;;11.85;8.82;;;2.70;99.90;;;;;;5100209;28;20086;-78
2022/11/20 11:13:25;;;;;;;12.57;8.75;;;2.80;99.90;;;;;;5099423;28;20094;-77
2022/11/20 11:15:51;;;;;;;14.00;9.65;;;2.80;99.90;;;;;;5080082;28;20075;-78
2022/11/20 11:18:31;;;;;;;14.48;9.48;;;2.80;99.90;;;;;;5101579;28;20126;-77
2022/11/20 11:21:02;;;;;;;12.07;8.75;;;2.80;99.90;;;;;;5091801;28;20047;-76
2022/11/20 11:23:34;;;;;;;12.43;8.98;;;2.70;99.90;;;;;;5118382;27;20055;-77
2022/11/20 11:26:01;;;;;;;12.75;9.10;;;3.20;99.90;;;;;;5104161;28;20055;-83
2022/11/20 11:28:28;;;;;;;13.00;8.52;;;2.70;99.90;;;;;;5093202;28;20122;-77
2022/11/20 11:30:54;;;;;;;12.73;8.35;;;2.60;99.90;;;;;;5103388;28;20501;-78
2022/11/20 11:33:29;;;;;;;12.20;8.88;;;3.10;99.90;;;;;;5103592;28;20043;-77
2022/11/20 11:35:57;;;;;;;11.25;8.63;;;2.60;99.90;;;;;;5104344;28;20056;-77
2022/11/20 11:38:35;;;;;;;13.05;8.55;;;2.70;99.90;;;;;;5082906;28;20083;-77
2022/11/20 11:41:02;;;;;;;11.68;8.52;;;2.70;99.90;;;;;;5101543;28;20157;-78
2022/11/20 11:46:24;;;;;;;9.88;6.82;;;2.70;99.90;;;;;;5101808;28;20047;-78
2022/11/20 11:49:08;;;;;;;11.07;7.20;;;2.80;99.90;;;;;;5100316;28;20043;-77
2022/11/20 11:52:02;;;;;;;10.27;7.03;;;2.80;99.90;;;;;;5104210;28;20101;-80
2022/11/20 11:54:34;;;;;;;10.55;7.30;;;2.80;99.90;;;;;;5100484;28;20066;-77
2022/11/20 11:57:10;;;;;;;11.05;7.40;;;2.80;99.90;;;;;;5103568;28;20052;-77
2022/11/20 12:00:06;;;;;;;12.20;8.05;;;2.80;99.90;;;;;;5106030;28;20055;-87
2022/11/20 12:02:50;;;;;;;10.48;7.15;;;2.80;99.90;;;;;;5112044;27;20048;-77
2022/11/20 12:05:42;;;;;;;10.25;7.15;;;2.80;99.90;;;;;;5105256;28;20043;-77
2022/11/20 12:08:31;;;;;;;14.57;10.40;;;3.80;99.90;;;;;;5079820;28;20059;-76
2022/11/20 12:11:05;;;;;;;15.55;10.48;;;3.00;99.90;;;;;;5102651;28;20040;-77
2022/11/20 12:13:41;;;;;;;13.77;10.68;;;3.00;99.90;;;;;;5086994;28;20090;-76
2022/11/20 12:16:16;;;;;;;15.75;10.73;;;3.20;99.90;;;;;;5091599;28;20057;-76
2022/11/20 12:18:42;;;;;;;15.15;9.82;;;2.90;99.90;;;;;;5100137;28;20531;-76
2022/11/20 12:21:23;;;;;;;15.70;10.50;;;3.00;99.90;;;;;;5097366;28;20048;-76
2022/11/20 12:23:55;;;;;;;15.07;11.20;;;3.30;99.90;;;;;;5101966;28;20059;-76
2022/11/20 12:26:49;;;;;;;15.77;11.32;;;3.20;99.90;;;;;;5099485;28;20059;-77
2022/11/20 12:29:46;;;;;;;12.00;7.93;;;3.30;99.90;;;;;;5096190;28;20052;-76
2022/11/20 12:32:15;;;;;;;10.68;7.53;;;3.40;99.90;;;;;;5102105;28;20398;-79
2022/11/20 12:35:02;;;;;;;11.05;7.43;;;3.60;99.90;;;;;;5099570;28;20087;-76
2022/11/20 12:37:47;;;;;;;10.73;7.15;;;3.70;99.90;;;;;;5096233;28;20048;-76
2022/11/20 12:40:19;;;;;;;10.43;7.30;;;3.80;99.90;;;;;;5086053;28;20089;-77
2022/11/20 12:46:05;;;;;;;10.93;7.63;;;3.80;99.90;;;;;;5104600;28;20142;-76
2022/11/20 12:48:58;;;;;;;10.55;7.45;;;3.80;99.90;;;;;;5101762;28;20055;-79
2022/11/20 12:51:24;;;;;;;;;;;3.80;99.90;;;;;;5104405;28;20511;-76
2022/11/20 12:53:57;;;;;;;11.02;7.82;;;3.60;99.90;;;;;;5092422;28;20011;-76
2022/11/20 12:56:56;;;;;;;13.55;8.45;;;3.60;99.90;;;;;;5104433;28;20050;-76
2022/11/20 12:59:25;;;;;;;12.73;8.20;;;3.50;99.90;;;;;;5103256;28;20078;-77
2022/11/20 13:02:09;;;;;;;11.95;8.25;;;3.50;99.90;;;;;;5110340;28;20103;-76